AirNav   Air Wisconsin Up To $57,000 Bonus
 
 304 users online  

CL35 Warner Springs Gliderport
Warner Springs, California, USA

GOING TO WARNER SPRINGS?


FAA INFORMATION EFFECTIVE 15 AUGUST 2019

Location

FAA Identifier: CL35
Lat/Long: 33-17-04.2100N 116-40-10.7650W
33-17.070167N 116-40.179417W
33.2845028,-116.6696569
(estimated)
Elevation: 2880 ft. / 878 m (estimated)
Variation: 13E (1985)
From city: 2 miles E of WARNER SPRINGS, CA
Time zone: UTC -7 (UTC -8 during Standard Time)
Zip code: 92086

Gliderport Operations

Gliderport use: Private use. Permission required prior to landing
Activation date: 10/1984
Control tower: no
ARTCC: LOS ANGELES CENTER
FSS: SAN DIEGO FLIGHT SERVICE STATION
Attendance: 0900-1700
Wind indicator: yes
Segmented circle: yes
Landing fee: yes

Gliderport Communications

UNICOM: 122.8
WX AWOS-3P at L08 (18 nm E): 126.575 (760-767-3308)
WX ASOS at RNM (19 nm SW): 132.025 (760-789-0736)

Nearby radio navigation aids

VOR radial/distance  VOR name  Freq  Var
JLIr319/9.6JULIAN VORTAC114.0015E
TRMr218/32.8THERMAL VORTAC116.2013E
PSPr186/37.1PALM SPRINGS VORTAC115.5013E
OCNr071/37.6OCEANSIDE VORTAC115.3015E
HDFr125/(39.2)HOMELAND VOR113.4014E

Gliderport Services

Runway Information

Runway 8/26

Dimensions: 3500 x 70 ft. / 1067 x 21 m
Surface: asphalt
RUNWAY 8  RUNWAY 26
Latitude: 33-17.060333N33-17.080000N
Longitude: 116-40.522667W116-39.836167W
Elevation: 2873.0 ft.2914.0 ft.
Traffic pattern: leftleft
Obstructions: none200 ft. hill, 5200 ft. from runway

Gliderport Ownership and Management from official FAA records

Ownership: Privately-owned
Owner: WARNER SPRINGS RANCH RESORT, LLC
31930 HWY 79
WARNER SPRINGS, CA 92086
Phone 760-782-4200
SKY SAILING 31930 HWY 79.
Manager: BRET WILLAT
SKY SAILING 31930 HWY 79
WARNER SPRINGS, CA 92086
Phone 760-782-0404
LEASEE.

Gliderport Operational Statistics

Aircraft based on the field: 80
Single engine airplanes: 10
Gliders airplanes: 70
    

Additional Remarks

FOR CD CTC LOS ANGELES ARTCC AT 661-575-2079.

Instrument Procedures

There are no published instrument procedures at CL35.

Some nearby airports with instrument procedures:

L08 - Borrego Valley Airport (18 nm E)
KRNM - Ramona Airport (19 nm SW)
F70 - French Valley Airport (29 nm NW)
L18 - Fallbrook Community Airpark (29 nm W)
KSEE - Gillespie Field Airport (31 nm SW)
 
Loc | Ops | Rwys | IFR | FBO | Links
Com | Nav | Svcs | Stats | Notes
Area around CL35 (Warner Springs Gliderport)
 
Road maps at: MapQuest Bing Google
 
Aerial photo
WARNING: Photo may not be current or correct
Aerial photo of CL35 (Warner Springs Gliderport)
Photo by Steve Lupinacci
Photo taken 27-May-2008

Do you have a better or more recent aerial photo of Warner Springs Gliderport that you would like to share? If so, please send us your photo.

 
Sectional chart

 
Airport distance calculator
Flying to Warner Springs Gliderport? Find the distance to fly.

From to CL35

Sunrise and sunset
Times for 21-Aug-2019
 Local
(UTC-7)
 Zulu
(UTC)
Morning civil twilight05:4912:49
Sunrise06:1413:14
Sunset19:2502:25
Evening civil twilight19:5102:51

Current date and time
Zulu (UTC)  21-Aug-2019 08:31:16
Local (UTC-7)  21-Aug-2019 01:31:16
 
METAR
KL08 
18nm E 
210815Z AUTO 30004KT 10SM CLR 25/06 A2975 RMK AO2
KRNM 
20nm SW 
210753Z AUTO 00000KT 10SM CLR 16/11 A2990 RMK AO2 SLP109 T01560111 403390100 $
KF70 
29nm NW 
210815Z AUTO 00000KT 10SM CLR 20/14 A2991 RMK AO1
KL18 
29nm W 
210815Z AUTO 00000KT 10SM CLR 17/16 A2988 RMK AO2
KSEE 
32nm SW 
210815Z AUTO 00000KT 10SM CLR 19/15 A2986 RMK AO2
KCRQ 
32nm W 
210753Z AUTO 00000KT 10SM CLR 20/17 A2986 RMK AO2 SLP110 T02000167 402500194
KTRM 
33nm NE 
210752Z AUTO 33009KT 10SM CLR 34/10 A2968 RMK AO2 SLP055 T03390100 404720272
KPSP 
33nm N 
210753Z AUTO 17003KT 10SM CLR 31/09 A2976 RMK AO2 SLP070 T03110094 404500239
KNFG 
33nm W 
210755Z AUTO 05003KT 10SM CLR 16/13 A2987 RMK AO2 SLP113 T01560133 402720144
KNKX 
34nm SW 
210755Z 35005KT 10SM CLR 20/16 A2988 RMK AO2 SLP110 T02000161 402940200
TAF
KCRQ 
32nm W 
210520Z 2106/2206 26006KT P6SM FEW010 FM210700 VRB03KT 5SM BR OVC006 FM211600 VRB04KT P6SM SCT009 FM212000 26008KT P6SM SKC FM220200 VRB04KT P6SM SKC
KTRM 
33nm NE 
210520Z 2106/2206 32009KT P6SM SKC FM211100 VRB05KT P6SM SKC FM220300 33011KT P6SM SKC
KPSP 
33nm N 
210520Z 2106/2206 VRB04KT P6SM SKC FM220100 33012KT P6SM SKC
KNFG 
33nm W 
2103/2203 VRB05KT 9999 FEW010 QNH2986INS BECMG 2106/2108 VRB05KT 9999 BKN010 QNH2984INS TEMPO 2109/2115 3200 BR OVC005 FM211700 22008KT 9999 NSW FEW015 QNH2980INS T16/2112Z T28/2122Z
KNKX 
34nm SW 
2103/2203 30006KT 9999 SCT010 QNH2985INS BECMG 2105/2107 VRB05KT 9999 OVC008 QNH2983INS TEMPO 2109/2115 4800 BR OVC005 FM211630 VRB05KT 9999 FEW015 QNH2982INS BECMG 2118/2120 29009KT 9999 SKC QNH2980INS T17/2112Z T28/2121Z
NOTAMs
Click for the latest NOTAMs
NOTAMs are issued by the DoD/FAA and will open in a separate window not controlled by AirNav.

 

 
 

Would you like to see your business listed on this page?

 If your business provides an interesting product or service to pilots, flight crews, aircraft, or users of the Warner Springs Gliderport, you should consider listing it here.  To start the listing process, click on the button below
 
Add a business
 

Other Pages about Warner Springs Gliderport

www.agcsc.org/warner_springs_info.html
 
Update a link
 
Copyright © AirNav, LLC. All rights reserved. Privacy Policy  Contact